Time;durP1;ratioP1;P1;durP2;ratioP2;P2;SDS_P1;SDS_P2;PMS_P1;PMS_P2;Temp;Humidity;BMP_temperature;BMP_pressure;BME280_temperature;BME280_humidity;BME280_pressure;Samples;Min_cycle;Max_cycle;Signal;HPM_P1;HPM_P2
2023/01/09 00:01:30;;;;;;;;;;;;;;;;;;5072281;28;19916;-62
2023/01/09 00:03:56;;;;;;;;;;;;;;;;;;5072246;28;19944;-59
2023/01/09 00:06:22;;;;;;;;;;;;;;;;;;5072114;28;19962;-59
2023/01/09 00:08:48;;;;;;;;;;;;;;;;;;5071966;28;19909;-61
2023/01/09 00:11:14;;;;;;;;;;;;;;;;;;5072203;28;19958;-62
2023/01/09 00:13:39;;;;;;;;;;;;;;;;;;5054201;28;19944;-61
2023/01/09 00:16:05;;;;;;;;;;;;;;;;;;5098808;22;19916;-66
2023/01/09 00:18:31;;;;;;;;;;;;;;;;;;5131102;27;19984;-66
2023/01/09 00:20:59;;;;;;;;;;;;;;;;;;5132577;27;20210;-66
2023/01/09 00:23:25;;;;;;;;;;;;;;;;;;5133265;27;19937;-66
2023/01/09 00:25:51;;;;;;;;;;;;;;;;;;5133258;27;19916;-66
2023/01/09 00:28:17;;;;;;;;;;;;;;;;;;5132978;27;19953;-66
2023/01/09 00:30:43;;;;;;;;;;;;;;;;;;5133190;27;20320;-66
2023/01/09 00:33:09;;;;;;;;;;;;;;;;;;5133012;28;19907;-66
2023/01/09 00:35:35;;;;;;;;;;;;;;;;;;5133166;28;19947;-66
2023/01/09 00:38:02;;;;;;;;;;;;;;;;;;5132960;28;19961;-66
2023/01/09 00:40:28;;;;;;;;;;;;;;;;;;5132808;28;20260;-66
2023/01/09 00:42:54;;;;;;;;;;;;;;;;;;5133136;28;19912;-66
2023/01/09 00:45:21;;;;;;;;;;;;;;;;;;5133032;28;20389;-66
2023/01/09 00:47:47;;;;;;;;;;;;;;;;;;5132878;28;19953;-66
2023/01/09 00:50:12;;;;;;;;;;;;;;;;;;5114426;28;20301;-66
2023/01/09 00:52:38;;;;;;;;;;;;;;;;;;5132924;28;19908;-66
2023/01/09 00:55:04;;;;;;;;;;;;;;;;;;5132917;28;19952;-66
2023/01/09 00:57:30;;;;;;;;;;;;;;;;;;5114381;28;19915;-66
2023/01/09 00:59:56;;;;;;;;;;;;;;;;;;5114185;28;19912;-66
2023/01/09 01:02:22;;;;;;;;;;;;;;;;;;5132838;28;19914;-66
2023/01/09 01:07:40;;;;;;;;;;;;;;;;;;5132815;28;19915;-66
2023/01/09 01:10:05;;;;;;;;;;;;;;;;;;5132601;28;19994;-66
2023/01/09 01:12:31;;;;;;;;;;;;;;;;;;5132776;28;20008;-66
2023/01/09 01:14:57;;;;;;;;;;;;;;;;;;5132758;28;19915;-66
2023/01/09 01:17:23;;;;;;;;;;;;;;;;;;5133945;27;19915;-66
2023/01/09 01:19:49;;;;;;;;;;;;;;;;;;5136355;27;19911;-66
2023/01/09 01:22:15;;;;;;;;;;;;;;;;;;5136577;27;20405;-67
2023/01/09 01:24:41;;;;;;;;;;;;;;;;;;5137323;27;20283;-66
2023/01/09 01:27:07;;;;;;;;;;;;;;;;;;5136500;27;20007;-66
2023/01/09 01:29:33;;;;;;;;;;;;;;;;;;5136241;27;19990;-66
2023/01/09 01:31:59;;;;;;;;;;;;;;;;;;5136447;27;19908;-66
2023/01/09 01:34:25;;;;;;;;;;;;;;;;;;5117799;27;20377;-66
2023/01/09 01:36:50;;;;;;;;;;;;;;;;;;5136297;27;19914;-66
2023/01/09 01:39:16;;;;;;;;;;;;;;;;;;5136171;27;19994;-66
2023/01/09 01:41:42;;;;;;;;;;;;;;;;;;5136239;27;19907;-66
2023/01/09 01:44:08;;;;;;;;;;;;;;;;;;5136178;27;19907;-66
2023/01/09 01:46:34;;;;;;;;;;;;;;;;;;5136114;27;19908;-66
2023/01/09 01:49:00;;;;;;;;;;;;;;;;;;5135877;27;20295;-66
2023/01/09 01:51:26;;;;;;;;;;;;;;;;;;5136111;27;19908;-66
2023/01/09 01:53:52;;;;;;;;;;;;;;;;;;5136041;27;19914;-66
2023/01/09 01:56:18;;;;;;;;;;;;;;;;;;5136394;27;19912;-66
2023/01/09 01:58:44;;;;;;;;;;;;;;;;;;5136187;27;19918;-66
2023/01/09 02:01:10;;;;;;;;;;;;;;;;;;5117432;27;19911;-66
2023/01/09 02:03:36;;;;;;;;;;;;;;;;;;5135853;27;19918;-67
2023/01/09 02:06:03;;;;;;;;;;;;;;;;;;5135767;27;19911;-66
2023/01/09 02:08:29;;;;;;;;;;;;;;;;;;5135638;27;19998;-66
2023/01/09 02:10:55;;;;;;;;;;;;;;;;;;5117242;27;19973;-66
2023/01/09 02:13:21;;;;;;;;;;;;;;;;;;5135931;27;20119;-66
2023/01/09 02:15:47;;;;;;;;;;;;;;;;;;5135605;27;20367;-66
2023/01/09 02:18:13;;;;;;;;;;;;;;;;;;5116801;27;20006;-66
2023/01/09 02:20:39;;;;;;;;;;;;;;;;;;5135454;27;19919;-66
2023/01/09 02:23:05;;;;;;;;;;;;;;;;;;5135508;27;19911;-66
2023/01/09 02:25:31;;;;;;;;;;;;;;;;;;5135446;27;20010;-66
2023/01/09 02:27:57;;;;;;;;;;;;;;;;;;5135104;27;19953;-66
2023/01/09 02:30:22;;;;;;;;;;;;;;;;;;5135151;27;19908;-66
2023/01/09 02:32:48;;;;;;;;;;;;;;;;;;5135227;27;19909;-66
2023/01/09 02:35:14;;;;;;;;;;;;;;;;;;5135291;27;19976;-66
2023/01/09 02:37:40;;;;;;;;;;;;;;;;;;5135118;27;20359;-66
2023/01/09 02:40:06;;;;;;;;;;;;;;;;;;5134851;27;19911;-66
2023/01/09 02:42:32;;;;;;;;;;;;;;;;;;5135042;27;19960;-66
2023/01/09 02:44:58;;;;;;;;;;;;;;;;;;5134971;27;19903;-66
2023/01/09 02:47:24;;;;;;;;;;;;;;;;;;5134911;27;19952;-66
2023/01/09 02:49:50;;;;;;;;;;;;;;;;;;5134782;27;20414;-66
2023/01/09 02:52:16;;;;;;;;;;;;;;;;;;5134941;27;19907;-66
2023/01/09 02:54:42;;;;;;;;;;;;;;;;;;5134855;27;20184;-66
2023/01/09 02:57:08;;;;;;;;;;;;;;;;;;5116263;27;20044;-66
2023/01/09 02:59:34;;;;;;;;;;;;;;;;;;5134502;27;20293;-66
2023/01/09 03:01:59;;;;;;;;;;;;;;;;;;5134716;27;20413;-66
2023/01/09 03:04:25;;;;;;;;;;;;;;;;;;5134721;27;19907;-66
2023/01/09 03:06:51;;;;;;;;;;;;;;;;;;5134569;27;20006;-66
2023/01/09 03:09:19;;;;;;;;;;;;;;;;;;5134349;27;19914;-66
2023/01/09 03:11:44;;;;;;;;;;;;;;;;;;5134479;27;19912;-66
2023/01/09 03:14:10;;;;;;;;;;;;;;;;;;5134351;27;19933;-66
2023/01/09 03:16:36;;;;;;;;;;;;;;;;;;5134216;27;19918;-66
2023/01/09 03:19:02;;;;;;;;;;;;;;;;;;5134062;27;20378;-66
2023/01/09 03:21:28;;;;;;;;;;;;;;;;;;5134305;27;19907;-66
2023/01/09 03:23:54;;;;;;;;;;;;;;;;;;5134191;27;19915;-66
2023/01/09 03:26:20;;;;;;;;;;;;;;;;;;5134162;27;19914;-66
2023/01/09 03:28:46;;;;;;;;;;;;;;;;;;5133901;27;19952;-66
2023/01/09 03:31:12;;;;;;;;;;;;;;;;;;5134055;27;20008;-66
2023/01/09 03:33:38;;;;;;;;;;;;;;;;;;5134413;27;20351;-66
2023/01/09 03:36:04;;;;;;;;;;;;;;;;;;5134021;27;19912;-66
2023/01/09 03:38:30;;;;;;;;;;;;;;;;;;5133802;27;19908;-66
2023/01/09 03:40:56;;;;;;;;;;;;;;;;;;5133452;27;19971;-66
2023/01/09 03:43:22;;;;;;;;;;;;;;;;;;5133842;27;19911;-66
2023/01/09 03:45:48;;;;;;;;;;;;;;;;;;5133815;27;19976;-66
2023/01/09 03:48:13;;;;;;;;;;;;;;;;;;5133575;27;19976;-66
2023/01/09 03:50:44;;;;;;;;;;;;;;;;;;5133757;27;19912;-66
2023/01/09 03:53:11;;;;;;;;;;;;;;;;;;5133666;27;19914;-66
2023/01/09 03:55:37;;;;;;;;;;;;;;;;;;5119529;27;19923;-66
2023/01/09 03:58:03;;;;;;;;;;;;;;;;;;5133377;27;20363;-66
2023/01/09 04:00:29;;;;;;;;;;;;;;;;;;5127625;27;20074;-66
2023/01/09 04:02:55;;;;;;;;;;;;;;;;;;5112102;28;20068;-66
2023/01/09 04:05:21;;;;;;;;;;;;;;;;;;5126204;27;20014;-66
2023/01/09 04:07:47;;;;;;;;;;;;;;;;;;5133081;27;19999;-66
2023/01/09 04:10:13;;;;;;;;;;;;;;;;;;5116374;27;19912;-66
2023/01/09 04:12:39;;;;;;;;;;;;;;;;;;5112790;28;19914;-66
2023/01/09 04:15:05;;;;;;;;;;;;;;;;;;5112813;28;19911;-66
2023/01/09 04:17:31;;;;;;;;;;;;;;;;;;5112648;28;19916;-66
2023/01/09 04:19:58;;;;;;;;;;;;;;;;;;5097082;27;19922;-66
2023/01/09 04:22:24;;;;;;;;;;;;;;;;;;5112589;28;19932;-66
2023/01/09 04:24:50;;;;;;;;;;;;;;;;;;5106857;27;20387;-66
2023/01/09 04:27:16;;;;;;;;;;;;;;;;;;5133106;27;19957;-66
2023/01/09 04:29:42;;;;;;;;;;;;;;;;;;5133031;27;19950;-66
2023/01/09 04:32:07;;;;;;;;;;;;;;;;;;5132920;28;19919;-66
2023/01/09 04:34:33;;;;;;;;;;;;;;;;;;5126367;28;19912;-66
2023/01/09 04:36:59;;;;;;;;;;;;;;;;;;5102943;28;19977;-66
2023/01/09 04:39:25;;;;;;;;;;;;;;;;;;5112430;28;19911;-66
2023/01/09 04:41:51;;;;;;;;;;;;;;;;;;5132422;28;19968;-66
2023/01/09 04:44:17;;;;;;;;;;;;;;;;;;5132750;28;19915;-66
2023/01/09 04:46:43;;;;;;;;;;;;;;;;;;5132734;28;19918;-66
2023/01/09 04:49:09;;;;;;;;;;;;;;;;;;5114494;28;20291;-66
2023/01/09 04:51:35;;;;;;;;;;;;;;;;;;5129406;27;20394;-66
2023/01/09 04:54:01;;;;;;;;;;;;;;;;;;5133969;27;19912;-66
2023/01/09 04:56:27;;;;;;;;;;;;;;;;;;5114880;27;19919;-51
2023/01/09 04:58:53;;;;;;;;;;;;;;;;;;5132699;27;19998;-64
2023/01/09 05:01:18;;;;;;;;;;;;;;;;;;5115971;28;19985;-64
2023/01/09 05:03:44;;;;;;;;;;;;;;;;;;5116941;28;19907;-64
2023/01/09 05:06:10;;;;;;;;;;;;;;;;;;5116302;28;20003;-64
2023/01/09 05:08:36;;;;;;;;;;;;;;;;;;5116466;28;20010;-64
2023/01/09 05:11:02;;;;;;;;;;;;;;;;;;5097936;28;19912;-64
2023/01/09 05:13:28;;;;;;;;;;;;;;;;;;5116143;28;19961;-64
2023/01/09 05:15:54;;;;;;;;;;;;;;;;;;5115346;28;19912;-64
2023/01/09 05:18:20;;;;;;;;;;;;;;;;;;5115846;28;19916;-64
2023/01/09 05:20:46;;;;;;;;;;;;;;;;;;5116230;28;20330;-63
2023/01/09 05:23:12;;;;;;;;;;;;;;;;;;5116296;28;19918;-64
2023/01/09 05:25:38;;;;;;;;;;;;;;;;;;5115986;28;20455;-64
2023/01/09 05:28:03;;;;;;;;;;;;;;;;;;5116134;28;19930;-64
2023/01/09 05:30:29;;;;;;;;;;;;;;;;;;5115871;28;20333;-64
2023/01/09 05:32:55;;;;;;;;;;;;;;;;;;5115890;28;19908;-64
2023/01/09 05:35:21;;;;;;;;;;;;;;;;;;5115804;28;20139;-64
2023/01/09 05:37:47;;;;;;;;;;;;;;;;;;5115902;28;20032;-65
2023/01/09 05:40:13;;;;;;;;;;;;;;;;;;5115497;28;19999;-64
2023/01/09 05:42:39;;;;;;;;;;;;;;;;;;5097670;28;20337;-64
2023/01/09 05:45:05;;;;;;;;;;;;;;;;;;5115645;28;20011;-64
2023/01/09 05:47:31;;;;;;;;;;;;;;;;;;5115588;28;19999;-64
2023/01/09 05:49:57;;;;;;;;;;;;;;;;;;5115358;28;19994;-64
2023/01/09 05:52:23;;;;;;;;;;;;;;;;;;5115567;28;20002;-64
2023/01/09 05:54:48;;;;;;;;;;;;;;;;;;5115407;28;20358;-64
2023/01/09 05:57:14;;;;;;;;;;;;;;;;;;5115298;28;20333;-64
2023/01/09 05:59:40;;;;;;;;;;;;;;;;;;5115154;28;19912;-64
2023/01/09 06:02:06;;;;;;;;;;;;;;;;;;5115315;28;19912;-64
2023/01/09 06:04:32;;;;;;;;;;;;;;;;;;5114695;28;19957;-64
2023/01/09 06:06:58;;;;;;;;;;;;;;;;;;5115187;28;19911;-64
2023/01/09 06:09:24;;;;;;;;;;;;;;;;;;5114963;28;19915;-64
2023/01/09 06:11:50;;;;;;;;;;;;;;;;;;5115056;28;19908;-64
2023/01/09 06:14:16;;;;;;;;;;;;;;;;;;5115044;28;20053;-64
2023/01/09 06:16:42;;;;;;;;;;;;;;;;;;5115360;28;19999;-64
2023/01/09 06:19:08;;;;;;;;;;;;;;;;;;5114983;28;20018;-64
2023/01/09 06:21:34;;;;;;;;;;;;;;;;;;5115082;28;19973;-64
2023/01/09 06:23:59;;;;;;;;;;;;;;;;;;5115204;28;19936;-64
2023/01/09 06:26:25;;;;;;;;;;;;;;;;;;5114849;28;20371;-64
2023/01/09 06:28:54;;;;;;;;;;;;;;;;;;5114631;28;19915;-64
2023/01/09 06:31:20;;;;;;;;;;;;;;;;;;5114728;28;20323;-64
2023/01/09 06:33:46;;;;;;;;;;;;;;;;;;5114771;28;19911;-64
2023/01/09 06:36:12;;;;;;;;;;;;;;;;;;5114686;28;19931;-64
2023/01/09 06:38:38;;;;;;;;;;;;;;;;;;5096087;28;20006;-64
2023/01/09 06:41:04;;;;;;;;;;;;;;;;;;5114532;28;19951;-64
2023/01/09 06:43:30;;;;;;;;;;;;;;;;;;5114576;28;20024;-64
2023/01/09 06:45:56;;;;;;;;;;;;;;;;;;5114444;28;19908;-64
2023/01/09 06:48:23;;;;;;;;;;;;;;;;;;5114375;28;20418;-64
2023/01/09 06:50:49;;;;;;;;;;;;;;;;;;5114394;28;19977;-64
2023/01/09 06:53:15;;;;;;;;;;;;;;;;;;5114250;28;20002;-64
2023/01/09 06:55:41;;;;;;;;;;;;;;;;;;5114318;28;20003;-64
2023/01/09 06:58:07;;;;;;;;;;;;;;;;;;5114013;28;19908;-64
2023/01/09 07:00:33;;;;;;;;;;;;;;;;;;5114043;28;19934;-64
2023/01/09 07:02:59;;;;;;;;;;;;;;;;;;5114070;28;20389;-64
2023/01/09 07:05:25;;;;;;;;;;;;;;;;;;5095722;28;19903;-64
2023/01/09 07:07:51;;;;;;;;;;;;;;;;;;5113896;28;19931;-64
2023/01/09 07:10:17;;;;;;;;;;;;;;;;;;5113830;28;19925;-64
2023/01/09 07:12:42;;;;;;;;;;;;;;;;;;5114020;28;19911;-64
2023/01/09 07:15:08;;;;;;;;;;;;;;;;;;5112819;28;19903;-64
2023/01/09 07:17:34;;;;;;;;;;;;;;;;;;5113724;28;19920;-64
2023/01/09 07:20:00;;;;;;;;;;;;;;;;;;5113592;28;19912;-65
2023/01/09 07:22:26;;;;;;;;;;;;;;;;;;5113786;28;19914;-64
2023/01/09 07:24:52;;;;;;;;;;;;;;;;;;5113724;28;19911;-64
2023/01/09 07:27:18;;;;;;;;;;;;;;;;;;5113623;28;19908;-64
2023/01/09 07:29:44;;;;;;;;;;;;;;;;;;5113397;28;19908;-64
2023/01/09 07:32:10;;;;;;;;;;;;;;;;;;5113608;28;19907;-64
2023/01/09 07:34:36;;;;;;;;;;;;;;;;;;5113465;28;19908;-64
2023/01/09 07:37:10;;;;;;;;;;;;;;;;;;5109948;27;19918;-64
2023/01/09 07:39:36;;;;;;;;;;;;;;;;;;5109901;28;19995;-64
2023/01/09 07:42:02;;;;;;;;;;;;;;;;;;5110025;28;19908;-64
2023/01/09 07:44:28;;;;;;;;;;;;;;;;;;5108702;28;20363;-64
2023/01/09 07:46:54;;;;;;;;;;;;;;;;;;5109833;28;20006;-64
2023/01/09 07:49:20;;;;;;;;;;;;;;;;;;5109670;28;19999;-64
2023/01/09 07:51:47;;;;;;;;;;;;;;;;;;5110318;28;19908;-64
2023/01/09 07:54:13;;;;;;;;;;;;;;;;;;5109846;28;20403;-64
2023/01/09 07:56:39;;;;;;;;;;;;;;;;;;5109635;28;19958;-65
2023/01/09 07:59:05;;;;;;;;;;;;;;;;;;5109541;28;19912;-64
2023/01/09 08:01:30;;;;;;;;;;;;;;;;;;5110139;28;19912;-64
2023/01/09 08:03:56;;;;;;;;;;;;;;;;;;5109587;28;20326;-65
2023/01/09 08:06:22;;;;;;;;;;;;;;;;;;5109467;28;19908;-64
2023/01/09 08:08:49;;;;;;;;;;;;;;;;;;5109358;28;19978;-65
2023/01/09 08:11:14;;;;;;;;;;;;;;;;;;5109781;28;20349;-65
2023/01/09 08:13:40;;;;;;;;;;;;;;;;;;5109428;28;19947;-65
2023/01/09 08:16:06;;;;;;;;;;;;;;;;;;5109269;28;19912;-65
2023/01/09 08:18:32;;;;;;;;;;;;;;;;;;5109138;28;19908;-65
2023/01/09 08:20:58;;;;;;;;;;;;;;;;;;5109225;28;19957;-65
2023/01/09 08:23:24;;;;;;;;;;;;;;;;;;5109282;28;19908;-65
2023/01/09 08:25:50;;;;;;;;;;;;;;;;;;5109236;28;19919;-65
2023/01/09 08:28:16;;;;;;;;;;;;;;;;;;5109358;28;20608;-65
2023/01/09 08:30:42;;;;;;;;;;;;;;;;;;5109217;28;19908;-65
2023/01/09 08:33:08;;;;;;;;;;;;;;;;;;5109039;28;20514;-65
2023/01/09 08:35:34;;;;;;;;;;;;;;;;;;5108816;28;20007;-65
2023/01/09 08:38:00;;;;;;;;;;;;;;;;;;5108924;28;19908;-65
2023/01/09 08:40:26;;;;;;;;;;;;;;;;;;5108760;28;19915;-64
2023/01/09 08:48:21;;;;;;;;;;;;;;;;;;5095821;28;19920;-65
2023/01/09 08:50:47;;;;;;;;;;;;;;;;;;5095088;28;19908;-65
2023/01/09 08:53:14;;;;;;;;;;;;;;;;;;5095075;28;20360;-65
2023/01/09 08:55:40;;;;;;;;;;;;;;;;;;5095203;28;19912;-65
2023/01/09 08:58:06;;;;;;;;;;;;;;;;;;5094646;28;20369;-65
2023/01/09 09:00:32;;;;;;;;;;;;;;;;;;5095071;28;19916;-65
2023/01/09 09:02:57;;;;;;;;;;;;;;;;;;5094958;28;20010;-65
2023/01/09 09:05:23;;;;;;;;;;;;;;;;;;5094846;28;19963;-65
2023/01/09 09:07:49;;;;;;;;;;;;;;;;;;5094726;28;19950;-65
2023/01/09 09:10:15;;;;;;;;;;;;;;;;;;5094612;28;19947;-65
2023/01/09 09:12:41;;;;;;;;;;;;;;;;;;5094681;28;20388;-65
2023/01/09 09:15:18;;;;;;;;;;;8.90;99.90;;;;;;5094614;28;19959;-67
2023/01/09 09:17:44;;;;;;;;;;;9.00;99.90;;;;;;5094613;28;20402;-68
2023/01/09 09:20:10;;;;;;;;;;;9.00;99.90;;;;;;5094283;28;19908;-68
2023/01/09 09:22:36;;;;;;;;;;;9.00;99.90;;;;;;5094544;28;19915;-68
2023/01/09 09:25:03;;;;;;;;;;;8.90;99.90;;;;;;5093161;28;19909;-68
2023/01/09 09:27:29;;;;;;;;;;;;;;;;;;5094363;28;20273;-67
2023/01/09 09:29:55;;;;;;;;;;;;;;;;;;5094260;28;19908;-67
2023/01/09 09:32:21;;;;;;;;;;;;;;;;;;5093093;28;19919;-67
2023/01/09 09:34:47;;;;;;;;;;;;;;;;;;5094011;28;19908;-67
2023/01/09 09:37:13;;;;;;;;;;;;;;;;;;5094302;28;20002;-68
2023/01/09 09:39:39;;;;;;;;;;;;;;;;;;5093998;28;19996;-67
2023/01/09 09:44:52;;;;;;;;;;;;;;;;;;5094189;28;19992;-67
2023/01/09 09:47:18;;;;;;;;;;;;;;;;;;5093926;28;19908;-67
2023/01/09 09:49:44;;;;;;;;;;;;;;;;;;5093935;28;20374;-67
2023/01/09 09:52:10;;;;;;;;;;;;;;;;;;5093956;28;19914;-67
2023/01/09 09:54:36;;;;;;;;;;;;;;;;;;5093898;28;19908;-67
2023/01/09 09:57:02;;;;;;;;;;;;;;;;;;5093754;28;19942;-67
2023/01/09 09:59:28;;;;;;;;;;;;;;;;;;5092738;28;19908;-67
2023/01/09 10:01:55;;;;;;;;;;;;;;;;;;5093744;28;19908;-67
2023/01/09 10:04:22;;;;;;;;;;;8.80;99.90;;;;;;5093702;28;19912;-67
2023/01/09 10:06:47;;;;;;;;;;;;;;;;;;5093722;28;20007;-67
2023/01/09 10:09:13;;;;;;;;;;;;;;;;;;5093446;28;19950;-67
2023/01/09 10:11:39;;;;;;;;;;;;;;;;;;5093627;28;19943;-67
2023/01/09 10:14:05;;;;;;;;;;;8.80;99.90;;;;;;5093585;28;19908;-67
2023/01/09 10:16:31;;;;;;;;;;;;;;;;;;5092011;28;19923;-67
2023/01/09 10:18:57;;;;;;;;;;;;;;;;;;5093460;28;19953;-67
2023/01/09 10:21:41;;;;;;;;;;;8.70;99.90;;;;;;5093350;28;19997;-68
2023/01/09 10:24:07;;;;;;;;;;;;;;;;;;5092197;28;19908;-67
2023/01/09 10:26:33;;;;;;;;;;;;;;;;;;5093390;28;19908;-67
2023/01/09 10:28:59;;;;;;;;;;;;;;;;;;5093024;28;19915;-67
2023/01/09 10:31:25;;;;;;;;;;;;;;;;;;5093223;28;19971;-67
2023/01/09 10:33:51;;;;;;;;;;;;;;;;;;5093004;28;20371;-68
2023/01/09 10:36:17;;;;;;;;;;;;;;;;;;5091609;28;20011;-68
2023/01/09 10:38:43;;;;;;;;;;;;;;;;;;5092995;28;19999;-68
2023/01/09 10:41:09;;;;;;;;;;;;;;;;;;5093085;28;19912;-68
2023/01/09 10:43:34;;;;;;;;;;;;;;;;;;5093023;28;19944;-67
2023/01/09 10:46:00;;;;;;;;;;;;;;;;;;5092791;28;19908;-67
2023/01/09 10:48:26;;;;;;;;;;;;;;;;;;5092647;28;19908;-67
2023/01/09 10:50:52;;;;;;;;;;;;;;;;;;5092870;28;20391;-67
2023/01/09 10:53:18;;;;;;;;;;;;;;;;;;5091602;28;19958;-67
2023/01/09 10:55:46;;;;;;;;;;;;;;;;;;5091459;28;19919;-67
2023/01/09 10:58:12;;;;;;;;;;;8.80;99.90;;;;;;5092441;28;19908;-68
2023/01/09 11:00:38;;;;;;;;;;;;;;;;;;5092722;28;20375;-67
2023/01/09 11:03:04;;;;;;;;;;;;;;;;;;5091283;28;19990;-67
2023/01/09 11:05:30;;;;;;;;;;;;;;;;;;5092629;28;20007;-67
2023/01/09 11:07:56;;;;;;;;;;;;;;;;;;5092530;28;19948;-67
2023/01/09 11:10:22;;;;;;;;;;;;;;;;;;5090129;28;19912;-68
2023/01/09 11:12:48;;;;;;;;;;;;;;;;;;5085871;28;19919;-67
2023/01/09 11:15:14;;;;;;;;;;;;;;;;;;5085550;28;19916;-68
2023/01/09 11:17:40;;;;;;;;;;;;;;;;;;5080014;28;19999;-68
2023/01/09 11:20:05;;;;;;;;;;;;;;;;;;5091600;28;20007;-68
2023/01/09 11:22:42;;;;;;;;;;;9.50;99.90;;;;;;5090726;28;20488;-67
2023/01/09 11:25:08;;;;;;;;;;;;;;;;;;5090892;28;19915;-68
2023/01/09 11:27:33;;;;;;;;;;;;;;;;;;5083240;28;19913;-68
2023/01/09 11:29:59;;;;;;;;;;;;;;;;;;5071849;28;19913;-67
2023/01/09 11:32:25;;;;;;;;;;;;;;;;;;5078234;28;19935;-67
2023/01/09 11:34:51;;;;;;;;;;;;;;;;;;5071968;28;20369;-67
2023/01/09 11:37:17;;;;;;;;;;;;;;;;;;5072012;28;19909;-68
2023/01/09 11:39:44;;;;;;;;;;;;;;;;;;5072448;28;19931;-67
2023/01/09 11:42:50;;;;;;;;;;;9.60;99.90;;;;;;5088029;28;19919;-67
2023/01/09 11:45:06;;;;;;;;;;;;;;;;;;5075354;28;20010;-67
2023/01/09 11:47:32;;;;;;;;;;;;;;;;;;5071914;28;20005;-67
2023/01/09 11:49:58;;;;;;;;;;;;;;;;;;5070421;28;20427;-67
2023/01/09 11:52:25;;;;;;;;;;;9.50;99.40;;;;;;5071830;28;19956;-67
2023/01/09 11:54:51;;;;;;;;;;;;;;;;;;5071860;28;19916;-67
2023/01/09 11:57:17;;;;;;;;;;;;;;;;;;5071653;28;19912;-67
2023/01/09 11:59:42;;;;;;;;;;;9.00;99.90;;;;;;5086906;28;19918;-67
2023/01/09 12:02:27;;;;;;;;;;;9.10;99.90;;;;;;5091659;28;19912;-67
2023/01/09 12:04:58;;;;;;;;;;;9.20;99.80;;;;;;5091864;28;19914;-67
2023/01/09 12:07:30;;;;;;;;;;;9.40;99.90;;;;;;5091883;28;19967;-68
2023/01/09 12:09:56;;;;;;;;;;;;;;;;;;5090502;28;19915;-67
2023/01/09 12:12:22;;;;;;;;;;;;;;;;;;5072351;28;20266;-67
2023/01/09 12:14:48;;;;;;;;;;;;;;;;;;5086984;28;19957;-67
2023/01/09 12:17:14;;;;;;;;;;;;;;;;;;5073385;28;19959;-67
2023/01/09 12:19:40;;;;;;;;;;;;;;;;;;5073003;28;20358;-67
2023/01/09 12:22:12;;;;;;;;;;;9.00;99.90;;;;;;5081385;28;20296;-67
2023/01/09 12:24:38;;;;;;;;;;;;;;;;;;5094090;28;19912;-67
2023/01/09 12:27:16;;;;;;;;;;;9.30;99.90;;;;;;5093494;28;20300;-67
2023/01/09 12:30:01;;;;;;;;;;;9.30;99.70;;;;;;5074923;28;20397;-67
2023/01/09 12:32:30;;;;;;;;;;;9.50;99.30;;;;;;5070943;28;19919;-68
2023/01/09 12:35:14;;;;;;;;;;;10.80;96.10;;;;;;5074933;28;19954;-67
2023/01/09 12:37:39;;;;;;;;;;;10.80;95.80;;;;;;5075338;28;20312;-67
2023/01/09 12:40:14;;;;;;;;;;;11.70;93.70;;;;;;5074922;28;19916;-67
2023/01/09 12:42:42;;;;;;;;;;;13.20;87.20;;;;;;5076250;28;19909;-67
2023/01/09 12:45:30;;;;;;;;;;;13.30;83.90;;;;;;5094498;28;19916;-68
2023/01/09 12:48:22;;;;;;;;;;;14.00;78.80;;;;;;5094731;28;19998;-68
2023/01/09 12:50:48;;;;;;;;;;;14.10;77.70;;;;;;5078355;28;19965;-68
2023/01/09 12:53:17;;;;;;;;;;;12.90;84.30;;;;;;5093395;28;19912;-68
2023/01/09 12:55:45;;;;;;;;;;;13.00;83.30;;;;;;5094981;28;19920;-67
2023/01/09 12:58:19;;;;;;;;;;;14.80;75.00;;;;;;5089032;28;19917;-68
2023/01/09 13:00:47;;;;;;;;;;;15.70;69.70;;;;;;5074662;28;19912;-68
2023/01/09 13:03:33;;;;;;;;;;;14.60;73.00;;;;;;5075885;28;19913;-68
2023/01/09 13:06:00;;;;;;;;;;;13.10;79.90;;;;;;5093634;28;19916;-68
2023/01/09 13:08:28;;;;;;;;;;;12.30;84.30;;;;;;5086478;28;19919;-68
2023/01/09 13:11:14;;;;;;;;;;;11.90;87.50;;;;;;5074432;28;20018;-68
2023/01/09 13:13:48;;;;;;;;;;;11.30;91.30;;;;;;5080515;28;19917;-67
2023/01/09 13:16:16;;;;;;;;;;;10.80;92.40;;;;;;5093891;28;20015;-68
2023/01/09 13:19:02;;;;;;;;;;;10.80;92.60;;;;;;5084391;28;19912;-68
2023/01/09 13:21:28;;;;;;;;;;;10.80;92.70;;;;;;5073894;28;19912;-67
2023/01/09 13:23:54;;;;;;;;;;;;;;;;;;5074212;28;19961;-67
2023/01/09 13:26:20;;;;;;;;;;;;;;;;;;5072937;28;19967;-68
2023/01/09 13:28:47;;;;;;;;;;;13.40;83.40;;;;;;5081756;28;20193;-68
2023/01/09 13:31:31;;;;;;;;;;;14.70;75.20;;;;;;5092739;28;19934;-68
2023/01/09 13:33:58;;;;;;;;;;;14.60;74.30;;;;;;5092951;28;19908;-68
2023/01/09 13:36:29;;;;;;;;;;;13.80;79.00;;;;;;5079998;28;19923;-68
2023/01/09 13:38:55;;;;;;;;;;;13.90;79.00;;;;;;5073798;28;19919;-68
2023/01/09 13:44:17;;;;;;;;;;;14.40;74.80;;;;;;5083390;28;19956;-67
2023/01/09 13:46:44;;;;;;;;;;;14.20;75.80;;;;;;5093400;28;19912;-68
2023/01/09 13:49:28;;;;;;;;;;;14.20;77.80;;;;;;5093462;28;19919;-66
2023/01/09 13:51:58;;;;;;;;;;;14.20;76.00;;;;;;5094194;28;19912;-64
2023/01/09 13:54:43;;;;;;;;;;;13.90;77.00;;;;;;5082955;28;19914;-65
2023/01/09 13:57:15;;;;;;;;;;;13.70;77.60;;;;;;5073396;28;19916;-66
2023/01/09 13:59:41;;;;;;;;;;;13.60;76.20;;;;;;5088621;28;19912;-64
2023/01/09 14:02:28;;;;;;;;;;;13.50;79.60;;;;;;5093127;28;19920;-65
2023/01/09 14:04:54;;;;;;;;;;;13.50;79.40;;;;;;5091905;28;19938;-64
2023/01/09 14:07:20;;;;;;;;;;;;;;;;;;5093651;28;20347;-65
2023/01/09 14:09:46;;;;;;;;;;;;;;;;;;5092896;28;20007;-64
2023/01/09 14:12:12;;;;;;;;;;;;;;;;;;5076332;28;19999;-65
2023/01/09 14:14:42;;;;;;;;;;;;;;;;;;5093510;28;19999;-65
2023/01/09 14:17:18;;;;;;;;;;;13.70;75.20;;;;;;5092730;28;19916;-66
2023/01/09 14:19:43;;;;;;;;;;;13.40;77.30;;;;;;5093313;28;19973;-66
2023/01/09 14:22:44;;;;;;;;;;;12.70;81.00;;;;;;5077851;28;19912;-65
2023/01/09 14:25:16;;;;;;;;;;;12.00;85.40;;;;;;5050690;28;19991;-66
2023/01/09 14:27:42;;;;;;;;;;;;;;;;;;5084119;28;19973;-65
2023/01/09 14:30:08;;;;;;;;;;;;;;;;;;5092344;28;19912;-65
2023/01/09 14:32:35;;;;;;;;;;;;;;;;;;5092012;28;19912;-65
2023/01/09 14:35:07;;;;;;;;;;;11.80;88.10;;;;;;5092894;28;19965;-65
2023/01/09 14:37:33;;;;;;;;;;;12.40;87.50;;;;;;5092705;28;19912;-65
2023/01/09 14:39:59;;;;;;;;;;;12.40;88.20;;;;;;5092878;28;20288;-65
2023/01/09 14:42:27;;;;;;;;;;;12.00;88.30;;;;;;5082219;28;19912;-66
2023/01/09 14:45:05;;;;;;;;;;;11.80;90.80;;;;;;5072240;28;20277;-65
2023/01/09 14:47:30;;;;;;;;;;;11.40;90.90;;;;;;5071230;28;20395;-66
2023/01/09 14:50:07;;;;;;;;;;;11.40;90.50;;;;;;5072577;28;19955;-65
2023/01/09 14:52:38;;;;;;;;;;;11.40;91.30;;;;;;5075196;28;19920;-66
2023/01/09 14:55:12;;;;;;;;;;;11.30;91.20;;;;;;5081201;28;19923;-65
2023/01/09 14:57:37;;;;;;;;;;;11.10;91.80;;;;;;5079407;28;19913;-65
2023/01/09 15:00:06;;;;;;;;;;;11.00;92.10;;;;;;5092343;28;19915;-66
2023/01/09 15:02:36;;;;;;;;;;;10.80;92.70;;;;;;5092566;28;20288;-66
2023/01/09 15:05:04;;;;;;;;;;;;;;;;;;5092605;28;19912;-65
2023/01/09 15:07:39;;;;;;;;;;;10.30;93.50;;;;;;5092533;28;19908;-66
2023/01/09 15:10:05;;;;;;;;;;;;;;;;;;5086611;28;19935;-66
2023/01/09 15:12:31;;;;;;;;;;;;;;;;;;5086968;28;20372;-65
2023/01/09 15:14:58;;;;;;;;;;;10.30;93.70;;;;;;5081042;28;19916;-65
2023/01/09 15:17:26;;;;;;;;;;;9.90;95.50;;;;;;5092354;28;20296;-65
2023/01/09 15:19:52;;;;;;;;;;;9.80;95.90;;;;;;5082539;28;19912;-65
2023/01/09 15:22:28;;;;;;;;;;;9.80;96.00;;;;;;5072171;28;19908;-65
2023/01/09 15:24:54;;;;;;;;;;;9.70;96.80;;;;;;5073140;28;19923;-65
2023/01/09 15:27:22;;;;;;;;;;;9.50;96.40;;;;;;5075589;28;19916;-65
2023/01/09 15:29:48;;;;;;;;;;;9.60;96.30;;;;;;5086294;28;19927;-65
2023/01/09 15:32:25;;;;;;;;;;;9.60;96.30;;;;;;5081189;28;20330;-65
2023/01/09 15:34:50;;;;;;;;;;;9.50;96.10;;;;;;5074773;28;19978;-66
2023/01/09 15:37:36;;;;;;;;;;;9.40;95.80;;;;;;5083011;28;20347;-66
2023/01/09 15:40:03;;;;;;;;;;;9.40;96.20;;;;;;5087287;28;19939;-65
2023/01/09 15:45:21;;;;;;;;;;;9.40;96.50;;;;;;5092406;28;20414;-65
2023/01/09 15:47:47;;;;;;;;;;;9.30;96.40;;;;;;5091059;28;19943;-65
2023/01/09 15:50:14;;;;;;;;;;;9.30;96.80;;;;;;5091616;28;20384;-66
2023/01/09 15:52:40;;;;;;;;;;;;;;;;;;5092121;28;19930;-66
2023/01/09 15:55:24;;;;;;;;;;;9.30;96.80;;;;;;5091964;28;20352;-65
2023/01/09 15:57:51;;;;;;;;;;;9.20;96.80;;;;;;5090025;28;20003;-66
2023/01/09 16:00:44;;;;;;;;;;;9.20;96.90;;;;;;5095572;28;19924;-66
2023/01/09 16:03:15;;;;;;;;;;;9.10;97.00;;;;;;5091475;28;19908;-66
2023/01/09 16:05:45;;;;;;;;;;;9.10;97.00;;;;;;5095473;28;19919;-66
2023/01/09 16:08:37;;;;;;;;;;;9.00;96.40;;;;;;5080035;28;19919;-65
2023/01/09 16:11:06;;;;;;;;;;;8.90;96.70;;;;;;5098274;28;19912;-66
2023/01/09 16:13:36;;;;;;;;;;;8.80;97.10;;;;;;5116189;28;19912;-66
2023/01/09 16:16:02;;;;;;;;;;;;;;;;;;5100194;28;19912;-65
2023/01/09 16:18:28;;;;;;;;;;;;;;;;;;5095721;28;20262;-65
2023/01/09 16:21:01;;;;;;;;;;;8.60;97.20;;;;;;5095714;28;19904;-65
2023/01/09 16:23:27;;;;;;;;;;;8.40;98.00;;;;;;5095734;28;19995;-66
2023/01/09 16:26:05;;;;;;;;;;;8.40;97.90;;;;;;5095781;28;19947;-66